sensor_id;sensor_type;location;lat;lon;timestamp;pressure;altitude;pressure_sealevel;temperature;humidity
61554;BME280;47425;51.976;5.326;2023-05-01T00:02:18;101700.38;;;12.89;51.88
61554;BME280;47425;51.976;5.326;2023-05-01T00:04:44;101690.78;;;12.86;52.13
61554;BME280;47425;51.976;5.326;2023-05-01T00:07:11;101691.78;;;12.79;52.33
61554;BME280;47425;51.976;5.326;2023-05-01T00:09:39;101689.25;;;12.73;52.00
61554;BME280;47425;51.976;5.326;2023-05-01T00:12:05;101696.38;;;12.65;52.53
61554;BME280;47425;51.976;5.326;2023-05-01T00:14:33;101692.03;;;12.65;52.29
61554;BME280;47425;51.976;5.326;2023-05-01T00:16:59;101684.16;;;12.64;52.39
61554;BME280;47425;51.976;5.326;2023-05-01T00:19:27;101677.25;;;12.56;52.03
61554;BME280;47425;51.976;5.326;2023-05-01T00:21:53;101672.16;;;12.46;52.66
61554;BME280;47425;51.976;5.326;2023-05-01T00:24:20;101667.00;;;12.39;52.81
61554;BME280;47425;51.976;5.326;2023-05-01T00:26:47;101664.50;;;12.32;52.79
61554;BME280;47425;51.976;5.326;2023-05-01T00:29:14;101657.56;;;12.24;53.00
61554;BME280;47425;51.976;5.326;2023-05-01T00:31:41;101658.47;;;12.22;53.02
61554;BME280;47425;51.976;5.326;2023-05-01T00:34:08;101662.03;;;12.21;53.32
61554;BME280;47425;51.976;5.326;2023-05-01T00:36:36;101659.34;;;12.24;53.21
61554;BME280;47425;51.976;5.326;2023-05-01T00:39:03;101653.28;;;12.19;53.18
61554;BME280;47425;51.976;5.326;2023-05-01T00:41:29;101649.91;;;12.11;53.45
61554;BME280;47425;51.976;5.326;2023-05-01T00:43:57;101642.91;;;12.09;53.61
61554;BME280;47425;51.976;5.326;2023-05-01T00:46:23;101639.47;;;12.04;53.48
61554;BME280;47425;51.976;5.326;2023-05-01T00:48:50;101633.44;;;11.99;53.69
61554;BME280;47425;51.976;5.326;2023-05-01T00:51:17;101630.00;;;11.91;53.98
61554;BME280;47425;51.976;5.326;2023-05-01T00:53:46;101626.50;;;11.90;54.00
61554;BME280;47425;51.976;5.326;2023-05-01T00:56:13;101630.94;;;11.88;54.04
61554;BME280;47425;51.976;5.326;2023-05-01T00:58:40;101631.75;;;11.90;54.02
61554;BME280;47425;51.976;5.326;2023-05-01T01:01:08;101624.84;;;11.85;54.12
61554;BME280;47425;51.976;5.326;2023-05-01T01:03:34;101617.88;;;11.82;54.13
61554;BME280;47425;51.976;5.326;2023-05-01T01:06:03;101621.47;;;11.75;54.39
61554;BME280;47425;51.976;5.326;2023-05-01T01:08:32;101611.09;;;11.66;54.59
61554;BME280;47425;51.976;5.326;2023-05-01T01:11:06;101603.22;;;11.64;54.77
61554;BME280;47425;51.976;5.326;2023-05-01T01:13:38;101601.53;;;11.60;54.84
61554;BME280;47425;51.976;5.326;2023-05-01T01:16:08;101599.00;;;11.54;55.15
61554;BME280;47425;51.976;5.326;2023-05-01T01:18:39;101594.56;;;11.56;55.04
61554;BME280;47425;51.976;5.326;2023-05-01T01:21:11;101594.53;;;11.61;55.07
61554;BME280;47425;51.976;5.326;2023-05-01T01:26:40;101587.56;;;11.59;54.90
61554;BME280;47425;51.976;5.326;2023-05-01T01:29:21;101575.34;;;11.57;54.82
61554;BME280;47425;51.976;5.326;2023-05-01T01:31:56;101579.69;;;11.58;54.93
61554;BME280;47425;51.976;5.326;2023-05-01T01:34:31;101572.72;;;11.57;55.00
61554;BME280;47425;51.976;5.326;2023-05-01T01:37:01;101565.66;;;11.62;54.86
61554;BME280;47425;51.976;5.326;2023-05-01T01:39:29;101570.00;;;11.65;54.91
61554;BME280;47425;51.976;5.326;2023-05-01T01:41:58;101555.88;;;11.73;54.68
61554;BME280;47425;51.976;5.326;2023-05-01T01:44:27;101552.38;;;11.73;54.72
61554;BME280;47425;51.976;5.326;2023-05-01T01:46:56;101552.28;;;11.81;54.57
61554;BME280;47425;51.976;5.326;2023-05-01T01:49:26;101550.50;;;11.83;54.31
61554;BME280;47425;51.976;5.326;2023-05-01T01:51:55;101534.72;;;11.86;54.38
61554;BME280;47425;51.976;5.326;2023-05-01T01:54:25;101540.72;;;11.94;54.34
61554;BME280;47425;51.976;5.326;2023-05-01T01:56:55;101531.94;;;11.98;54.03
61554;BME280;47425;51.976;5.326;2023-05-01T01:59:23;101530.00;;;12.09;53.66
61554;BME280;47425;51.976;5.326;2023-05-01T02:01:51;101526.47;;;12.12;53.84
61554;BME280;47425;51.976;5.326;2023-05-01T02:04:18;101524.72;;;12.11;53.56
61554;BME280;47425;51.976;5.326;2023-05-01T02:06:45;101529.97;;;12.13;53.66
61554;BME280;47425;51.976;5.326;2023-05-01T02:09:14;101521.16;;;12.15;53.54
61554;BME280;47425;51.976;5.326;2023-05-01T02:11:43;101521.22;;;12.12;53.25
61554;BME280;47425;51.976;5.326;2023-05-01T02:14:10;101519.53;;;12.08;53.22
61554;BME280;47425;51.976;5.326;2023-05-01T02:16:39;101512.53;;;12.07;52.93
61554;BME280;47425;51.976;5.326;2023-05-01T02:19:06;101508.22;;;12.06;53.04
61554;BME280;47425;51.976;5.326;2023-05-01T02:21:33;101508.25;;;12.01;53.12
61554;BME280;47425;51.976;5.326;2023-05-01T02:24:02;101510.00;;;12.02;53.11
61554;BME280;47425;51.976;5.326;2023-05-01T02:26:33;101511.81;;;11.99;53.18
61554;BME280;47425;51.976;5.326;2023-05-01T02:29:05;101505.66;;;12.00;53.26
61554;BME280;47425;51.976;5.326;2023-05-01T02:31:32;101497.06;;;11.88;53.46
61554;BME280;47425;51.976;5.326;2023-05-01T02:34:00;101497.22;;;11.79;53.81
61554;BME280;47425;51.976;5.326;2023-05-01T02:36:26;101497.16;;;11.82;53.60
61554;BME280;47425;51.976;5.326;2023-05-01T02:38:53;101489.22;;;11.85;53.63
61554;BME280;47425;51.976;5.326;2023-05-01T02:41:20;101484.00;;;11.84;53.77
61554;BME280;47425;51.976;5.326;2023-05-01T02:43:50;101502.34;;;11.85;54.03
61554;BME280;47425;51.976;5.326;2023-05-01T02:46:20;101491.91;;;11.82;53.78
61554;BME280;47425;51.976;5.326;2023-05-01T02:48:51;101477.06;;;11.80;53.93
61554;BME280;47425;51.976;5.326;2023-05-01T02:51:18;101482.31;;;11.80;53.95
61554;BME280;47425;51.976;5.326;2023-05-01T02:53:46;101480.53;;;11.83;53.87
61554;BME280;47425;51.976;5.326;2023-05-01T02:56:18;101478.75;;;11.84;53.94
61554;BME280;47425;51.976;5.326;2023-05-01T02:58:46;101476.97;;;11.87;53.86
61554;BME280;47425;51.976;5.326;2023-05-01T03:01:15;101467.28;;;11.89;53.86
61554;BME280;47425;51.976;5.326;2023-05-01T03:03:42;101466.38;;;11.92;53.78
61554;BME280;47425;51.976;5.326;2023-05-01T03:06:08;101463.75;;;11.92;53.52
61554;BME280;47425;51.976;5.326;2023-05-01T03:08:34;101466.34;;;11.93;53.24
61554;BME280;47425;51.976;5.326;2023-05-01T03:11:03;101469.75;;;12.03;53.45
61554;BME280;47425;51.976;5.326;2023-05-01T03:13:30;101462.63;;;12.08;53.20
61554;BME280;47425;51.976;5.326;2023-05-01T03:15:57;101458.22;;;12.11;53.03
61554;BME280;47425;51.976;5.326;2023-05-01T03:18:25;101458.25;;;12.09;52.84
61554;BME280;47425;51.976;5.326;2023-05-01T03:20:53;101458.19;;;12.12;52.64
61554;BME280;47425;51.976;5.326;2023-05-01T03:23:21;101460.00;;;12.10;52.82
61554;BME280;47425;51.976;5.326;2023-05-01T03:25:49;101450.34;;;12.11;52.67
61554;BME280;47425;51.976;5.326;2023-05-01T03:28:17;101451.25;;;12.09;52.65
61554;BME280;47425;51.976;5.326;2023-05-01T03:30:45;101450.41;;;12.07;52.31
61554;BME280;47425;51.976;5.326;2023-05-01T03:33:11;101444.38;;;12.02;52.48
61554;BME280;47425;51.976;5.326;2023-05-01T03:35:39;101442.75;;;11.95;52.54
61554;BME280;47425;51.976;5.326;2023-05-01T03:38:07;101441.84;;;11.96;52.71
61554;BME280;47425;51.976;5.326;2023-05-01T03:41:11;101442.59;;;12.03;52.86
61554;BME280;47425;51.976;5.326;2023-05-01T03:44:04;101438.19;;;12.06;52.67
61554;BME280;47425;51.976;5.326;2023-05-01T03:46:37;101431.19;;;12.05;52.49
61554;BME280;47425;51.976;5.326;2023-05-01T03:49:11;101439.00;;;12.08;52.66
61554;BME280;47425;51.976;5.326;2023-05-01T03:51:46;101427.59;;;12.13;52.44
61554;BME280;47425;51.976;5.326;2023-05-01T03:54:14;101419.69;;;12.14;52.51
61554;BME280;47425;51.976;5.326;2023-05-01T03:56:55;101423.06;;;12.21;52.33
61554;BME280;47425;51.976;5.326;2023-05-01T03:59:23;101416.88;;;12.23;52.55
61554;BME280;47425;51.976;5.326;2023-05-01T04:01:50;101419.34;;;12.31;52.22
61554;BME280;47425;51.976;5.326;2023-05-01T04:04:16;101413.22;;;12.32;51.99
61554;BME280;47425;51.976;5.326;2023-05-01T04:06:50;101418.41;;;12.35;51.93
61554;BME280;47425;51.976;5.326;2023-05-01T04:09:18;101419.22;;;12.39;52.04
61554;BME280;47425;51.976;5.326;2023-05-01T04:11:44;101409.59;;;12.38;51.93
61554;BME280;47425;51.976;5.326;2023-05-01T04:14:10;101414.94;;;12.33;51.76
61554;BME280;47425;51.976;5.326;2023-05-01T04:16:38;101415.03;;;12.29;51.84
61554;BME280;47425;51.976;5.326;2023-05-01T04:19:06;101423.84;;;12.26;51.95
61554;BME280;47425;51.976;5.326;2023-05-01T04:21:36;101418.41;;;12.37;51.84
61554;BME280;47425;51.976;5.326;2023-05-01T04:24:04;101415.53;;;12.49;51.60
61554;BME280;47425;51.976;5.326;2023-05-01T04:26:31;101410.03;;;12.62;51.95
61554;BME280;47425;51.976;5.326;2023-05-01T04:28:59;101413.47;;;12.65;51.40
61554;BME280;47425;51.976;5.326;2023-05-01T04:31:26;101414.41;;;12.63;51.29
61554;BME280;47425;51.976;5.326;2023-05-01T04:33:52;101404.00;;;12.56;51.22
61554;BME280;47425;51.976;5.326;2023-05-01T04:36:20;101413.66;;;12.56;51.35
61554;BME280;47425;51.976;5.326;2023-05-01T04:38:46;101411.84;;;12.58;51.55
61554;BME280;47425;51.976;5.326;2023-05-01T04:41:14;101409.25;;;12.56;51.38
61554;BME280;47425;51.976;5.326;2023-05-01T04:43:41;101404.94;;;12.52;51.25
61554;BME280;47425;51.976;5.326;2023-05-01T04:46:09;101402.41;;;12.49;51.49
61554;BME280;47425;51.976;5.326;2023-05-01T04:48:36;101405.84;;;12.51;51.40
61554;BME280;47425;51.976;5.326;2023-05-01T04:51:02;101409.47;;;12.46;51.51
61554;BME280;47425;51.976;5.326;2023-05-01T04:53:32;101405.91;;;12.48;51.56
61554;BME280;47425;51.976;5.326;2023-05-01T04:56:00;101407.69;;;12.48;51.38
61554;BME280;47425;51.976;5.326;2023-05-01T04:58:30;101403.38;;;12.42;51.48
61554;BME280;47425;51.976;5.326;2023-05-01T05:01:02;101406.97;;;12.38;51.47
61554;BME280;47425;51.976;5.326;2023-05-01T05:03:30;101401.72;;;12.38;51.75
61554;BME280;47425;51.976;5.326;2023-05-01T05:05:56;101400.69;;;12.47;51.69
61554;BME280;47425;51.976;5.326;2023-05-01T05:08:23;101398.78;;;12.55;51.55
61554;BME280;47425;51.976;5.326;2023-05-01T05:10:57;101394.22;;;12.63;51.68
61554;BME280;47425;51.976;5.326;2023-05-01T05:13:59;101393.13;;;12.75;51.48
61554;BME280;47425;51.976;5.326;2023-05-01T05:16:27;101399.97;;;12.84;51.16
61554;BME280;47425;51.976;5.326;2023-05-01T05:18:55;101394.66;;;12.85;51.48
61554;BME280;47425;51.976;5.326;2023-05-01T05:21:23;101393.84;;;12.82;51.21
61554;BME280;47425;51.976;5.326;2023-05-01T05:23:55;101392.31;;;12.71;51.10
61554;BME280;47425;51.976;5.326;2023-05-01T05:26:41;101397.94;;;12.53;50.90
61554;BME280;47425;51.976;5.326;2023-05-01T05:29:09;101402.44;;;12.48;51.20
61554;BME280;47425;51.976;5.326;2023-05-01T05:31:36;101403.38;;;12.42;51.43
61554;BME280;47425;51.976;5.326;2023-05-01T05:34:03;101413.06;;;12.40;51.46
61554;BME280;47425;51.976;5.326;2023-05-01T05:36:30;101412.25;;;12.36;51.47
61554;BME280;47425;51.976;5.326;2023-05-01T05:38:57;101407.88;;;12.35;51.81
61554;BME280;47425;51.976;5.326;2023-05-01T05:41:24;101401.81;;;12.33;51.77
61554;BME280;47425;51.976;5.326;2023-05-01T05:43:56;101402.78;;;12.29;51.64
61554;BME280;47425;51.976;5.326;2023-05-01T05:46:44;101403.53;;;12.36;51.87
61554;BME280;47425;51.976;5.326;2023-05-01T05:49:17;101400.31;;;12.20;51.93
61554;BME280;47425;51.976;5.326;2023-05-01T05:51:43;101393.25;;;12.22;51.81
61554;BME280;47425;51.976;5.326;2023-05-01T05:54:11;101395.91;;;12.20;51.90
61554;BME280;47425;51.976;5.326;2023-05-01T05:56:38;101402.03;;;12.22;52.12
61554;BME280;47425;51.976;5.326;2023-05-01T05:59:05;101393.88;;;12.36;52.16
61554;BME280;47425;51.976;5.326;2023-05-01T06:01:31;101389.13;;;12.55;52.40
61554;BME280;47425;51.976;5.326;2023-05-01T06:04:01;101383.41;;;12.79;52.07
61554;BME280;47425;51.976;5.326;2023-05-01T06:06:29;101384.81;;;12.95;51.65
61554;BME280;47425;51.976;5.326;2023-05-01T06:08:57;101381.41;;;12.90;51.27
61554;BME280;47425;51.976;5.326;2023-05-01T06:11:23;101384.06;;;12.88;51.41
61554;BME280;47425;51.976;5.326;2023-05-01T06:13:50;101383.06;;;12.94;51.41
61554;BME280;47425;51.976;5.326;2023-05-01T06:16:16;101381.28;;;12.96;50.85
61554;BME280;47425;51.976;5.326;2023-05-01T06:18:43;101383.69;;;13.07;51.20
61554;BME280;47425;51.976;5.326;2023-05-01T06:21:12;101385.19;;;13.17;51.19
61554;BME280;47425;51.976;5.326;2023-05-01T06:23:39;101379.81;;;13.23;50.85
61554;BME280;47425;51.976;5.326;2023-05-01T06:26:26;101375.50;;;13.19;50.91
61554;BME280;47425;51.976;5.326;2023-05-01T06:28:54;101379.13;;;13.15;50.93
61554;BME280;47425;51.976;5.326;2023-05-01T06:31:21;101376.06;;;13.34;51.48
61554;BME280;47425;51.976;5.326;2023-05-01T06:33:52;101380.97;;;13.49;50.97
61554;BME280;47425;51.976;5.326;2023-05-01T06:36:31;101377.47;;;13.50;50.56
61554;BME280;47425;51.976;5.326;2023-05-01T06:39:00;101383.63;;;13.49;50.58
61554;BME280;47425;51.976;5.326;2023-05-01T06:41:28;101380.19;;;13.47;50.42
61554;BME280;47425;51.976;5.326;2023-05-01T06:43:54;101381.03;;;13.48;50.10
61554;BME280;47425;51.976;5.326;2023-05-01T06:46:22;101378.31;;;13.51;50.68
61554;BME280;47425;51.976;5.326;2023-05-01T06:48:50;101387.41;;;13.73;50.52
61554;BME280;47425;51.976;5.326;2023-05-01T06:51:16;101377.25;;;13.94;50.61
61554;BME280;47425;51.976;5.326;2023-05-01T06:53:45;101380.03;;;14.22;50.22
61554;BME280;47425;51.976;5.326;2023-05-01T06:56:13;101383.91;;;14.40;49.64
61554;BME280;47425;51.976;5.326;2023-05-01T06:58:40;101376.75;;;14.46;49.47
61554;BME280;47425;51.976;5.326;2023-05-01T07:01:06;101378.47;;;14.47;49.47
61554;BME280;47425;51.976;5.326;2023-05-01T07:03:33;101373.84;;;14.55;49.54
61554;BME280;47425;51.976;5.326;2023-05-01T07:06:01;101373.97;;;14.50;49.51
61554;BME280;47425;51.976;5.326;2023-05-01T07:08:27;101378.75;;;14.37;49.58
61554;BME280;47425;51.976;5.326;2023-05-01T07:10:55;101374.63;;;14.27;50.23
61554;BME280;47425;51.976;5.326;2023-05-01T07:13:22;101369.41;;;14.25;50.26
61554;BME280;47425;51.976;5.326;2023-05-01T07:15:50;101380.47;;;14.38;50.32
61554;BME280;47425;51.976;5.326;2023-05-01T07:18:17;101373.38;;;14.40;50.61
61554;BME280;47425;51.976;5.326;2023-05-01T07:20:44;101370.44;;;14.51;50.71
61554;BME280;47425;51.976;5.326;2023-05-01T07:23:12;101372.97;;;14.56;50.24
61554;BME280;47425;51.976;5.326;2023-05-01T07:25:38;101375.81;;;14.80;50.38
61554;BME280;47425;51.976;5.326;2023-05-01T07:28:06;101382.38;;;14.96;50.30
61554;BME280;47425;51.976;5.326;2023-05-01T07:30:33;101379.41;;;15.07;50.23
61554;BME280;47425;51.976;5.326;2023-05-01T07:33:01;101387.66;;;14.96;49.93
61554;BME280;47425;51.976;5.326;2023-05-01T07:35:29;101379.06;;;14.89;50.21
61554;BME280;47425;51.976;5.326;2023-05-01T07:37:56;101384.06;;;14.97;50.27
61554;BME280;47425;51.976;5.326;2023-05-01T07:40:23;101388.94;;;15.11;49.97
61554;BME280;47425;51.976;5.326;2023-05-01T07:42:50;101387.56;;;15.27;49.79
61554;BME280;47425;51.976;5.326;2023-05-01T07:45:18;101383.13;;;15.56;49.35
61554;BME280;47425;51.976;5.326;2023-05-01T07:47:44;101388.38;;;15.85;48.61
61554;BME280;47425;51.976;5.326;2023-05-01T07:50:12;101389.03;;;16.17;48.20
61554;BME280;47425;51.976;5.326;2023-05-01T07:52:42;101383.09;;;16.35;47.92
61554;BME280;47425;51.976;5.326;2023-05-01T07:55:08;101385.66;;;16.38;47.78
61554;BME280;47425;51.976;5.326;2023-05-01T07:57:35;101389.03;;;16.42;47.83
61554;BME280;47425;51.976;5.326;2023-05-01T08:00:03;101395.78;;;16.25;47.67
61554;BME280;47425;51.976;5.326;2023-05-01T08:02:39;101396.06;;;16.18;47.79
61554;BME280;47425;51.976;5.326;2023-05-01T08:05:07;101395.84;;;16.24;47.88
61554;BME280;47425;51.976;5.326;2023-05-01T08:07:34;101398.25;;;16.30;47.75
61554;BME280;47425;51.976;5.326;2023-05-01T08:10:01;101390.50;;;16.25;47.45
61554;BME280;47425;51.976;5.326;2023-05-01T08:12:28;101388.03;;;16.21;47.33
61554;BME280;47425;51.976;5.326;2023-05-01T08:14:55;101384.75;;;16.14;47.30
61554;BME280;47425;51.976;5.326;2023-05-01T08:17:23;101386.03;;;16.02;47.49
61554;BME280;47425;51.976;5.326;2023-05-01T08:19:50;101388.22;;;15.89;47.86
61554;BME280;47425;51.976;5.326;2023-05-01T08:22:20;101387.78;;;15.75;48.37
61554;BME280;47425;51.976;5.326;2023-05-01T08:24:46;101384.53;;;15.67;48.51
61554;BME280;47425;51.976;5.326;2023-05-01T08:27:15;101381.81;;;15.70;49.05
61554;BME280;47425;51.976;5.326;2023-05-01T08:29:41;101380.44;;;15.58;48.96
61554;BME280;47425;51.976;5.326;2023-05-01T08:32:07;101379.72;;;15.53;49.21
61554;BME280;47425;51.976;5.326;2023-05-01T08:34:34;101377.50;;;15.39;49.78
61554;BME280;47425;51.976;5.326;2023-05-01T08:37:03;101381.16;;;15.35;49.74
61554;BME280;47425;51.976;5.326;2023-05-01T08:39:30;101376.94;;;15.29;50.10
61554;BME280;47425;51.976;5.326;2023-05-01T08:41:56;101376.88;;;15.32;50.42
61554;BME280;47425;51.976;5.326;2023-05-01T08:44:25;101377.81;;;15.30;50.68
61554;BME280;47425;51.976;5.326;2023-05-01T08:46:52;101389.22;;;15.30;50.64
61554;BME280;47425;51.976;5.326;2023-05-01T08:49:23;101389.22;;;15.30;50.86
61554;BME280;47425;51.976;5.326;2023-05-01T08:51:50;101385.75;;;15.28;51.14
61554;BME280;47425;51.976;5.326;2023-05-01T08:54:23;101382.66;;;15.15;51.22
61554;BME280;47425;51.976;5.326;2023-05-01T08:56:54;101389.84;;;15.10;51.11
61554;BME280;47425;51.976;5.326;2023-05-01T08:59:21;101386.94;;;15.19;51.43
61554;BME280;47425;51.976;5.326;2023-05-01T09:01:49;101385.75;;;15.30;51.03
61554;BME280;47425;51.976;5.326;2023-05-01T09:04:17;101381.13;;;15.36;51.38
61554;BME280;47425;51.976;5.326;2023-05-01T09:06:44;101382.53;;;15.47;51.19
61554;BME280;47425;51.976;5.326;2023-05-01T09:09:10;101387.41;;;15.60;50.93
61554;BME280;47425;51.976;5.326;2023-05-01T09:11:39;101394.19;;;15.68;50.36
61554;BME280;47425;51.976;5.326;2023-05-01T09:14:10;101398.25;;;15.78;50.40
61554;BME280;47425;51.976;5.326;2023-05-01T09:16:36;101394.66;;;16.07;50.27
61554;BME280;47425;51.976;5.326;2023-05-01T09:19:03;101392.44;;;16.46;49.65
61554;BME280;47425;51.976;5.326;2023-05-01T09:21:30;101405.44;;;16.52;49.19
61554;BME280;47425;51.976;5.326;2023-05-01T09:23:57;101402.56;;;16.58;49.39
61554;BME280;47425;51.976;5.326;2023-05-01T09:26:23;101400.81;;;16.57;48.98
61554;BME280;47425;51.976;5.326;2023-05-01T09:28:53;101396.53;;;16.78;48.98
61554;BME280;47425;51.976;5.326;2023-05-01T09:31:23;101393.59;;;16.86;48.29
61554;BME280;47425;51.976;5.326;2023-05-01T09:33:52;101394.59;;;17.07;48.14
61554;BME280;47425;51.976;5.326;2023-05-01T09:36:19;101401.25;;;17.39;47.36
61554;BME280;47425;51.976;5.326;2023-05-01T09:38:47;101403.22;;;17.34;46.84
61554;BME280;47425;51.976;5.326;2023-05-01T09:41:13;101397.81;;;17.37;46.89
61554;BME280;47425;51.976;5.326;2023-05-01T09:43:40;101397.63;;;17.42;45.97
61554;BME280;47425;51.976;5.326;2023-05-01T09:46:09;101401.25;;;17.39;45.72
61554;BME280;47425;51.976;5.326;2023-05-01T09:48:38;101404.41;;;17.71;45.87
61554;BME280;47425;51.976;5.326;2023-05-01T09:51:18;101400.72;;;17.96;45.45
61554;BME280;47425;51.976;5.326;2023-05-01T09:53:45;101408.38;;;18.04;44.56
61554;BME280;47425;51.976;5.326;2023-05-01T09:56:12;101405.19;;;17.96;43.83
61554;BME280;47425;51.976;5.326;2023-05-01T09:58:39;101398.91;;;17.98;43.66
61554;BME280;47425;51.976;5.326;2023-05-01T10:01:05;101399.06;;;18.14;43.63
61554;BME280;47425;51.976;5.326;2023-05-01T10:03:34;101401.00;;;18.31;44.02
61554;BME280;47425;51.976;5.326;2023-05-01T10:06:02;101396.94;;;18.43;43.48
61554;BME280;47425;51.976;5.326;2023-05-01T10:08:42;101397.28;;;18.56;43.28
61554;BME280;47425;51.976;5.326;2023-05-01T10:11:09;101401.44;;;18.41;41.76
61554;BME280;47425;51.976;5.326;2023-05-01T10:13:37;101404.78;;;18.25;42.63
61554;BME280;47425;51.976;5.326;2023-05-01T10:16:03;101401.31;;;18.23;42.49
61554;BME280;47425;51.976;5.326;2023-05-01T10:18:33;101404.94;;;18.22;42.58
61554;BME280;47425;51.976;5.326;2023-05-01T10:21:00;101411.84;;;18.25;42.49
61554;BME280;47425;51.976;5.326;2023-05-01T10:23:28;101411.81;;;18.26;42.13
61554;BME280;47425;51.976;5.326;2023-05-01T10:25:54;101408.91;;;18.52;42.28
61554;BME280;47425;51.976;5.326;2023-05-01T10:28:22;101416.19;;;18.67;42.27
61554;BME280;47425;51.976;5.326;2023-05-01T10:30:53;101418.09;;;18.84;42.01
61554;BME280;47425;51.976;5.326;2023-05-01T10:33:20;101423.88;;;18.73;42.00
61554;BME280;47425;51.976;5.326;2023-05-01T10:35:52;101423.09;;;18.71;42.00
61554;BME280;47425;51.976;5.326;2023-05-01T10:38:21;101418.00;;;18.67;42.29
61554;BME280;47425;51.976;5.326;2023-05-01T10:40:50;101432.69;;;18.74;41.97
61554;BME280;47425;51.976;5.326;2023-05-01T10:43:17;101422.94;;;18.74;42.36
61554;BME280;47425;51.976;5.326;2023-05-01T10:45:45;101427.72;;;18.66;42.14
61554;BME280;47425;51.976;5.326;2023-05-01T10:48:12;101434.91;;;18.64;41.87
61554;BME280;47425;51.976;5.326;2023-05-01T10:51:07;101435.56;;;18.69;42.04
61554;BME280;47425;51.976;5.326;2023-05-01T10:53:36;101428.81;;;18.62;41.61
61554;BME280;47425;51.976;5.326;2023-05-01T10:56:02;101432.56;;;18.77;41.42
61554;BME280;47425;51.976;5.326;2023-05-01T11:01:26;101434.22;;;18.79;41.39
61554;BME280;47425;51.976;5.326;2023-05-01T11:03:54;101427.28;;;18.96;41.21
61554;BME280;47425;51.976;5.326;2023-05-01T11:06:22;101432.06;;;19.08;41.00
61554;BME280;47425;51.976;5.326;2023-05-01T11:08:49;101431.31;;;19.24;41.00
61554;BME280;47425;51.976;5.326;2023-05-01T11:14:04;101422.41;;;19.25;41.11
61554;BME280;47425;51.976;5.326;2023-05-01T11:16:38;101422.31;;;19.45;40.89
61554;BME280;47425;51.976;5.326;2023-05-01T11:19:06;101432.53;;;19.72;40.31
61554;BME280;47425;51.976;5.326;2023-05-01T11:21:35;101429.63;;;19.96;39.64
61554;BME280;47425;51.976;5.326;2023-05-01T11:24:03;101422.34;;;20.00;39.92
61554;BME280;47425;51.976;5.326;2023-05-01T11:26:29;101430.16;;;20.03;39.52
61554;BME280;47425;51.976;5.326;2023-05-01T11:28:58;101427.97;;;20.11;39.42
61554;BME280;47425;51.976;5.326;2023-05-01T11:31:24;101428.34;;;20.21;39.79
61554;BME280;47425;51.976;5.326;2023-05-01T11:33:51;101430.63;;;20.28;38.97
61554;BME280;47425;51.976;5.326;2023-05-01T11:36:21;101425.06;;;20.33;39.43
61554;BME280;47425;51.976;5.326;2023-05-01T11:38:50;101433.03;;;20.16;39.35
61554;BME280;47425;51.976;5.326;2023-05-01T11:41:18;101429.13;;;19.88;39.40
61554;BME280;47425;51.976;5.326;2023-05-01T11:43:48;101421.59;;;19.78;39.49
61554;BME280;47425;51.976;5.326;2023-05-01T11:46:22;101422.34;;;20.00;39.59
61554;BME280;47425;51.976;5.326;2023-05-01T11:48:49;101427.41;;;20.22;39.61
61554;BME280;47425;51.976;5.326;2023-05-01T11:51:16;101424.84;;;20.20;39.77
61554;BME280;47425;51.976;5.326;2023-05-01T11:53:57;101423.19;;;20.35;39.54
61554;BME280;47425;51.976;5.326;2023-05-01T11:56:26;101430.53;;;20.30;39.37
61554;BME280;47425;51.976;5.326;2023-05-01T11:58:52;101424.44;;;20.28;39.35
61554;BME280;47425;51.976;5.326;2023-05-01T12:01:19;101432.78;;;20.38;39.29
61554;BME280;47425;51.976;5.326;2023-05-01T12:03:47;101428.41;;;20.37;39.44
61554;BME280;47425;51.976;5.326;2023-05-01T12:06:13;101439.94;;;20.37;39.34
61554;BME280;47425;51.976;5.326;2023-05-01T12:08:43;101442.44;;;20.23;40.35
61554;BME280;47425;51.976;5.326;2023-05-01T12:11:14;101440.88;;;20.01;40.41
61554;BME280;47425;51.976;5.326;2023-05-01T12:13:41;101438.84;;;19.89;40.49
61554;BME280;47425;51.976;5.326;2023-05-01T12:16:13;101439.78;;;19.88;41.44
61554;BME280;47425;51.976;5.326;2023-05-01T12:18:39;101440.81;;;19.66;41.44
61554;BME280;47425;51.976;5.326;2023-05-01T12:21:27;101442.44;;;19.32;42.63
61554;BME280;47425;51.976;5.326;2023-05-01T12:23:54;101436.63;;;19.24;42.24
61554;BME280;47425;51.976;5.326;2023-05-01T12:26:23;101441.44;;;18.97;42.11
61554;BME280;47425;51.976;5.326;2023-05-01T12:28:54;101448.75;;;18.91;42.23
61554;BME280;47425;51.976;5.326;2023-05-01T12:31:22;101443.94;;;19.00;42.41
61554;BME280;47425;51.976;5.326;2023-05-01T12:33:52;101443.75;;;19.04;41.90
61554;BME280;47425;51.976;5.326;2023-05-01T12:36:18;101447.94;;;18.89;41.94
61554;BME280;47425;51.976;5.326;2023-05-01T12:38:59;101442.00;;;18.64;42.04
61554;BME280;47425;51.976;5.326;2023-05-01T12:41:36;101441.28;;;18.39;42.15
61554;BME280;47425;51.976;5.326;2023-05-01T12:44:20;101436.19;;;18.35;42.97
61554;BME280;47425;51.976;5.326;2023-05-01T12:46:52;101443.81;;;18.22;42.87
61554;BME280;47425;51.976;5.326;2023-05-01T12:49:21;101444.03;;;18.17;43.23
61554;BME280;47425;51.976;5.326;2023-05-01T12:51:47;101436.38;;;18.09;43.55
61554;BME280;47425;51.976;5.326;2023-05-01T12:54:18;101442.81;;;18.04;43.76
61554;BME280;47425;51.976;5.326;2023-05-01T12:56:46;101434.06;;;18.02;44.15
61554;BME280;47425;51.976;5.326;2023-05-01T12:59:19;101436.38;;;17.87;44.45
61554;BME280;47425;51.976;5.326;2023-05-01T13:01:50;101431.53;;;17.76;44.88
61554;BME280;47425;51.976;5.326;2023-05-01T13:04:23;101433.88;;;17.84;45.16
61554;BME280;47425;51.976;5.326;2023-05-01T13:06:49;101431.59;;;17.75;45.23
61554;BME280;47425;51.976;5.326;2023-05-01T13:09:17;101426.19;;;17.56;45.76